Fu Ning Wan — VRDN9 — position and weather

sailwx.info

Track history (hours):
 
Tides and Currents Weather Stations Pressure Air Temp Water Temp Dewpoint Dewpoint Depression Visibility Wind Speed Wind Dir Waves Ship Positions

Fu Ning Wan

Last reported at 2014-Oct-28 15:08 UTC. Time now 2014-Oct-31 06:27 UTC.
Position N 29°57' W 090°04'.

Length 107 m; draft 6.6 m.

Type: Tanker. MMSI: 477003600.

Date/timePositionNaut miles runAvg speedWind from/ knotsBaromVisibWave heightAir tempDewpointWater temp
2014-Oct-28 15:08N 29°57' W 090°04'14 6.9
2014-Oct-28 13:06N 29°56' W 090°20'0 0.0
2014-Oct-28 12:24N 29°56' W 090°20'12 0.3
2014-Oct-27 00:31N 29°55' W 090°05'6 6.5
2014-Oct-26 23:33N 29°56' W 089°58'13 0.4
2014-Oct-25 13:30N 29°43' W 089°59'8 6.5
2014-Oct-25 12:13N 29°37' W 089°53'  
2014-Oct-22 01:31N 25°50' W 079°49'9 9.2
2014-Oct-22 00:33N 25°57' W 079°56'1110.7
2014-Oct-21 23:33N 26°04' W 080°04'3 3.2
2014-Oct-21 22:29N 26°06' W 080°07'0 0.0
2014-Oct-21 21:32N 26°06' W 080°07'0 0.0
2014-Oct-21 20:32N 26°06' W 080°07'0 0.0
2014-Oct-21 19:32N 26°06' W 080°07'0 0.0
2014-Oct-21 18:32N 26°06' W 080°07'0 0.0
2014-Oct-21 17:32N 26°06' W 080°07'0 0.0
2014-Oct-21 16:32N 26°06' W 080°07'0 0.0
2014-Oct-21 15:32N 26°06' W 080°07'0 0.0
2014-Oct-21 14:23N 26°06' W 080°07'0 0.0
2014-Oct-21 13:23N 26°06' W 080°07'0 0.0
2014-Oct-21 12:26N 26°06' W 080°07'0 0.0
2014-Oct-21 11:26N 26°06' W 080°07'0 0.0
2014-Oct-21 10:29N 26°06' W 080°07'0 0.0
2014-Oct-21 09:29N 26°06' W 080°07'0 0.0
2014-Oct-21 08:29N 26°06' W 080°07'0 0.0
2014-Oct-21 07:32N 26°06' W 080°07'0 0.0
2014-Oct-21 06:32N 26°06' W 080°07'0 0.0
2014-Oct-21 05:32N 26°06' W 080°07'0 0.0
2014-Oct-21 04:32N 26°06' W 080°07'0 0.0
2014-Oct-21 03:32N 26°06' W 080°07'0 0.0
2014-Oct-21 02:32N 26°06' W 080°07'0 0.0
2014-Oct-21 01:32N 26°06' W 080°07'0 0.0
2014-Oct-21 00:20N 26°06' W 080°07'0 0.0
2014-Oct-20 23:23N 26°06' W 080°07'0 0.0
2014-Oct-20 22:26N 26°06' W 080°07'0 0.0
2014-Oct-20 21:26N 26°06' W 080°07'0 0.0
2014-Oct-20 20:26N 26°06' W 080°07'0 0.0
2014-Oct-20 19:29N 26°06' W 080°07'0 0.0
2014-Oct-20 18:26N 26°06' W 080°07'0 0.0
2014-Oct-20 17:29N 26°06' W 080°07'0 0.0
2014-Oct-20 16:32N 26°06' W 080°07'0 0.0
2014-Oct-20 15:32N 26°06' W 080°07'0 0.0
2014-Oct-20 14:32N 26°06' W 080°07'0 0.0
2014-Oct-20 13:32N 26°06' W 080°07'0 0.0
2014-Oct-20 12:32N 26°06' W 080°07'2 1.6
2014-Oct-20 11:34N 26°06' W 080°06'2 2.3
2014-Oct-20 10:31N 26°08' W 080°04'0 0.0
2014-Oct-20 09:31N 26°08' W 080°04'0 0.0
2014-Oct-20 08:31N 26°08' W 080°04'0 0.0
2014-Oct-20 07:22N 26°08' W 080°04'3 3.7
2014-Oct-20 06:33N 26°06' W 080°02'1212.3
2014-Oct-20 05:34N 25°56' W 079°54'  
Track history (hours):
 
Tides and Currents Weather Stations Pressure Air Temp Water Temp Dewpoint Dewpoint Depression Visibility Wind Speed Wind Dir Waves Ship Positions

Fu Ning Wan

Last reported at 2014-Oct-28 15:08 UTC. Time now 2014-Oct-31 06:27 UTC.
Position N 29°57' W 090°04'.

Length 107 m; draft 6.6 m.

Type: Tanker. MMSI: 477003600.

Date/timePositionNaut miles runAvg speedWind from/ knotsBaromVisibWave heightAir tempDewpointWater temp
2014-Oct-28 15:08N 29°57' W 090°04'14 6.9
2014-Oct-28 13:06N 29°56' W 090°20'0 0.0
2014-Oct-28 12:24N 29°56' W 090°20'12 0.3
2014-Oct-27 00:31N 29°55' W 090°05'6 6.5
2014-Oct-26 23:33N 29°56' W 089°58'13 0.4
2014-Oct-25 13:30N 29°43' W 089°59'8 6.5
2014-Oct-25 12:13N 29°37' W 089°53'  
2014-Oct-22 01:31N 25°50' W 079°49'9 9.2
2014-Oct-22 00:33N 25°57' W 079°56'1110.7
2014-Oct-21 23:33N 26°04' W 080°04'3 3.2
2014-Oct-21 22:29N 26°06' W 080°07'0 0.0
2014-Oct-21 21:32N 26°06' W 080°07'0 0.0
2014-Oct-21 20:32N 26°06' W 080°07'0 0.0
2014-Oct-21 19:32N 26°06' W 080°07'0 0.0
2014-Oct-21 18:32N 26°06' W 080°07'0 0.0
2014-Oct-21 17:32N 26°06' W 080°07'0 0.0
2014-Oct-21 16:32N 26°06' W 080°07'0 0.0
2014-Oct-21 15:32N 26°06' W 080°07'0 0.0
2014-Oct-21 14:23N 26°06' W 080°07'0 0.0
2014-Oct-21 13:23N 26°06' W 080°07'0 0.0
2014-Oct-21 12:26N 26°06' W 080°07'0 0.0
2014-Oct-21 11:26N 26°06' W 080°07'0 0.0
2014-Oct-21 10:29N 26°06' W 080°07'0 0.0
2014-Oct-21 09:29N 26°06' W 080°07'0 0.0
2014-Oct-21 08:29N 26°06' W 080°07'0 0.0
2014-Oct-21 07:32N 26°06' W 080°07'0 0.0
2014-Oct-21 06:32N 26°06' W 080°07'0 0.0
2014-Oct-21 05:32N 26°06' W 080°07'0 0.0
2014-Oct-21 04:32N 26°06' W 080°07'0 0.0
2014-Oct-21 03:32N 26°06' W 080°07'0 0.0
2014-Oct-21 02:32N 26°06' W 080°07'0 0.0
2014-Oct-21 01:32N 26°06' W 080°07'0 0.0
2014-Oct-21 00:20N 26°06' W 080°07'0 0.0
2014-Oct-20 23:23N 26°06' W 080°07'0 0.0
2014-Oct-20 22:26N 26°06' W 080°07'0 0.0
2014-Oct-20 21:26N 26°06' W 080°07'0 0.0
2014-Oct-20 20:26N 26°06' W 080°07'0 0.0
2014-Oct-20 19:29N 26°06' W 080°07'0 0.0
2014-Oct-20 18:26N 26°06' W 080°07'0 0.0
2014-Oct-20 17:29N 26°06' W 080°07'0 0.0
2014-Oct-20 16:32N 26°06' W 080°07'0 0.0
2014-Oct-20 15:32N 26°06' W 080°07'0 0.0
2014-Oct-20 14:32N 26°06' W 080°07'0 0.0
2014-Oct-20 13:32N 26°06' W 080°07'0 0.0
2014-Oct-20 12:32N 26°06' W 080°07'2 1.6
2014-Oct-20 11:34N 26°06' W 080°06'2 2.3
2014-Oct-20 10:31N 26°08' W 080°04'0 0.0
2014-Oct-20 09:31N 26°08' W 080°04'0 0.0
2014-Oct-20 08:31N 26°08' W 080°04'0 0.0
2014-Oct-20 07:22N 26°08' W 080°04'3 3.7
2014-Oct-20 06:33N 26°06' W 080°02'1212.3
2014-Oct-20 05:34N 25°56' W 079°54'  

Dump ship's entire track history